sensor_id;sensor_type;location;lat;lon;timestamp;P1;durP1;ratioP1;P2;durP2;ratioP2
66468;SDS011;53288;55.922;37.720;2022-08-01T00:00:26;31.13;;;4.82;;
66468;SDS011;53288;55.922;37.720;2022-08-01T00:02:52;25.17;;;5.47;;
66468;SDS011;53288;55.922;37.720;2022-08-01T00:05:18;18.73;;;4.05;;
66468;SDS011;53288;55.922;37.720;2022-08-01T00:07:44;15.43;;;4.80;;
66468;SDS011;53288;55.922;37.720;2022-08-01T00:10:11;13.93;;;4.88;;
66468;SDS011;53288;55.922;37.720;2022-08-01T00:12:39;12.35;;;4.05;;
66468;SDS011;53288;55.922;37.720;2022-08-01T00:15:06;13.18;;;4.15;;
66468;SDS011;53288;55.922;37.720;2022-08-01T00:17:33;15.35;;;4.20;;
66468;SDS011;53288;55.922;37.720;2022-08-01T00:19:59;19.58;;;4.28;;
66468;SDS011;53288;55.922;37.720;2022-08-01T00:22:25;13.15;;;3.95;;
66468;SDS011;53288;55.922;37.720;2022-08-01T00:24:51;21.48;;;4.60;;
66468;SDS011;53288;55.922;37.720;2022-08-01T00:27:17;35.42;;;3.83;;
66468;SDS011;53288;55.922;37.720;2022-08-01T00:29:42;23.17;;;4.57;;
66468;SDS011;53288;55.922;37.720;2022-08-01T00:32:08;19.77;;;4.25;;
66468;SDS011;53288;55.922;37.720;2022-08-01T00:34:34;29.58;;;4.22;;
66468;SDS011;53288;55.922;37.720;2022-08-01T00:37:00;29.35;;;4.53;;
66468;SDS011;53288;55.922;37.720;2022-08-01T00:39:26;30.83;;;4.68;;
66468;SDS011;53288;55.922;37.720;2022-08-01T00:41:52;20.77;;;4.93;;
66468;SDS011;53288;55.922;37.720;2022-08-01T00:44:17;17.08;;;5.03;;
66468;SDS011;53288;55.922;37.720;2022-08-01T00:46:43;25.58;;;5.40;;
66468;SDS011;53288;55.922;37.720;2022-08-01T00:49:09;32.40;;;4.95;;
66468;SDS011;53288;55.922;37.720;2022-08-01T00:51:35;6.47;;;4.47;;
66468;SDS011;53288;55.922;37.720;2022-08-01T00:54:01;29.83;;;5.47;;
66468;SDS011;53288;55.922;37.720;2022-08-01T00:56:27;28.90;;;5.55;;
66468;SDS011;53288;55.922;37.720;2022-08-01T00:58:54;18.08;;;4.75;;
66468;SDS011;53288;55.922;37.720;2022-08-01T01:01:21;34.42;;;5.50;;
66468;SDS011;53288;55.922;37.720;2022-08-01T01:03:48;26.77;;;5.05;;
66468;SDS011;53288;55.922;37.720;2022-08-01T01:08:55;13.00;;;3.58;;
66468;SDS011;53288;55.922;37.720;2022-08-01T01:11:28;20.15;;;4.43;;
66468;SDS011;53288;55.922;37.720;2022-08-01T01:14:00;10.63;;;4.38;;
66468;SDS011;53288;55.922;37.720;2022-08-01T01:16:30;17.27;;;4.50;;
66468;SDS011;53288;55.922;37.720;2022-08-01T01:18:57;8.93;;;4.43;;
66468;SDS011;53288;55.922;37.720;2022-08-01T01:24:13;13.75;;;4.20;;
66468;SDS011;53288;55.922;37.720;2022-08-01T01:27:02;11.35;;;3.90;;
66468;SDS011;53288;55.922;37.720;2022-08-01T01:29:46;9.98;;;4.35;;
66468;SDS011;53288;55.922;37.720;2022-08-01T01:32:17;16.95;;;5.20;;
66468;SDS011;53288;55.922;37.720;2022-08-01T01:34:45;26.05;;;4.97;;
66468;SDS011;53288;55.922;37.720;2022-08-01T01:37:17;16.67;;;4.18;;
66468;SDS011;53288;55.922;37.720;2022-08-01T01:39:45;14.57;;;4.20;;
66468;SDS011;53288;55.922;37.720;2022-08-01T01:42:12;14.50;;;4.38;;
66468;SDS011;53288;55.922;37.720;2022-08-01T01:44:40;9.65;;;4.38;;
66468;SDS011;53288;55.922;37.720;2022-08-01T01:47:07;15.02;;;4.13;;
66468;SDS011;53288;55.922;37.720;2022-08-01T01:49:32;21.95;;;4.53;;
66468;SDS011;53288;55.922;37.720;2022-08-01T01:51:59;19.73;;;4.47;;
66468;SDS011;53288;55.922;37.720;2022-08-01T01:54:30;23.08;;;4.10;;
66468;SDS011;53288;55.922;37.720;2022-08-01T01:56:59;14.38;;;4.90;;
66468;SDS011;53288;55.922;37.720;2022-08-01T01:59:27;27.80;;;4.13;;
66468;SDS011;53288;55.922;37.720;2022-08-01T02:01:55;21.65;;;5.28;;
66468;SDS011;53288;55.922;37.720;2022-08-01T02:04:23;30.10;;;5.47;;
66468;SDS011;53288;55.922;37.720;2022-08-01T02:06:50;19.42;;;4.65;;
66468;SDS011;53288;55.922;37.720;2022-08-01T02:09:17;15.35;;;4.63;;
66468;SDS011;53288;55.922;37.720;2022-08-01T02:11:45;30.83;;;5.57;;
66468;SDS011;53288;55.922;37.720;2022-08-01T02:14:12;24.15;;;4.55;;
66468;SDS011;53288;55.922;37.720;2022-08-01T02:16:39;22.88;;;5.57;;
66468;SDS011;53288;55.922;37.720;2022-08-01T02:19:06;13.35;;;4.38;;
66468;SDS011;53288;55.922;37.720;2022-08-01T02:24:09;13.65;;;4.05;;
66468;SDS011;53288;55.922;37.720;2022-08-01T02:26:44;40.10;;;5.47;;
66468;SDS011;53288;55.922;37.720;2022-08-01T02:29:15;16.02;;;4.40;;
66468;SDS011;53288;55.922;37.720;2022-08-01T02:31:45;30.42;;;4.80;;
66468;SDS011;53288;55.922;37.720;2022-08-01T02:34:13;15.68;;;3.97;;
66468;SDS011;53288;55.922;37.720;2022-08-01T02:36:43;32.55;;;5.13;;
66468;SDS011;53288;55.922;37.720;2022-08-01T02:39:11;48.08;;;5.20;;
66468;SDS011;53288;55.922;37.720;2022-08-01T02:41:42;21.75;;;3.72;;
66468;SDS011;53288;55.922;37.720;2022-08-01T02:44:11;15.63;;;4.82;;
66468;SDS011;53288;55.922;37.720;2022-08-01T02:46:46;7.38;;;3.70;;
66468;SDS011;53288;55.922;37.720;2022-08-01T02:49:22;23.63;;;4.60;;
66468;SDS011;53288;55.922;37.720;2022-08-01T02:51:49;22.33;;;4.35;;
66468;SDS011;53288;55.922;37.720;2022-08-01T02:54:17;37.78;;;5.43;;
66468;SDS011;53288;55.922;37.720;2022-08-01T02:56:44;15.00;;;5.07;;
66468;SDS011;53288;55.922;37.720;2022-08-01T02:59:12;21.98;;;4.63;;
66468;SDS011;53288;55.922;37.720;2022-08-01T03:01:41;29.23;;;4.75;;
66468;SDS011;53288;55.922;37.720;2022-08-01T03:04:08;33.38;;;5.68;;
66468;SDS011;53288;55.922;37.720;2022-08-01T03:06:34;35.65;;;5.35;;
66468;SDS011;53288;55.922;37.720;2022-08-01T03:09:02;26.92;;;5.03;;
66468;SDS011;53288;55.922;37.720;2022-08-01T03:11:28;33.63;;;3.78;;
66468;SDS011;53288;55.922;37.720;2022-08-01T03:13:55;29.17;;;5.25;;
66468;SDS011;53288;55.922;37.720;2022-08-01T03:16:22;20.25;;;4.22;;
66468;SDS011;53288;55.922;37.720;2022-08-01T03:18:49;26.48;;;4.25;;
66468;SDS011;53288;55.922;37.720;2022-08-01T03:21:18;11.73;;;3.97;;
66468;SDS011;53288;55.922;37.720;2022-08-01T03:23:45;17.00;;;4.05;;
66468;SDS011;53288;55.922;37.720;2022-08-01T03:26:13;38.17;;;4.38;;
66468;SDS011;53288;55.922;37.720;2022-08-01T03:28:39;28.90;;;3.75;;
66468;SDS011;53288;55.922;37.720;2022-08-01T03:31:07;15.73;;;3.72;;
66468;SDS011;53288;55.922;37.720;2022-08-01T03:33:33;26.83;;;4.07;;
66468;SDS011;53288;55.922;37.720;2022-08-01T03:35:59;18.92;;;4.00;;
66468;SDS011;53288;55.922;37.720;2022-08-01T03:38:26;15.00;;;3.10;;
66468;SDS011;53288;55.922;37.720;2022-08-01T03:40:56;14.65;;;2.97;;
66468;SDS011;53288;55.922;37.720;2022-08-01T03:43:36;15.25;;;3.10;;
66468;SDS011;53288;55.922;37.720;2022-08-01T03:46:04;12.18;;;2.70;;
66468;SDS011;53288;55.922;37.720;2022-08-01T03:48:34;15.15;;;2.72;;
66468;SDS011;53288;55.922;37.720;2022-08-01T03:51:02;21.20;;;2.78;;
66468;SDS011;53288;55.922;37.720;2022-08-01T03:53:30;6.28;;;2.13;;
66468;SDS011;53288;55.922;37.720;2022-08-01T03:55:58;20.50;;;3.03;;
66468;SDS011;53288;55.922;37.720;2022-08-01T03:58:26;21.15;;;3.03;;
66468;SDS011;53288;55.922;37.720;2022-08-01T04:00:53;15.55;;;2.55;;
66468;SDS011;53288;55.922;37.720;2022-08-01T04:03:19;16.02;;;2.00;;
66468;SDS011;53288;55.922;37.720;2022-08-01T04:05:45;15.88;;;2.05;;
66468;SDS011;53288;55.922;37.720;2022-08-01T04:08:11;30.42;;;3.15;;
66468;SDS011;53288;55.922;37.720;2022-08-01T04:10:37;5.75;;;2.20;;
66468;SDS011;53288;55.922;37.720;2022-08-01T04:13:03;7.40;;;2.58;;
66468;SDS011;53288;55.922;37.720;2022-08-01T04:15:29;11.73;;;2.42;;
66468;SDS011;53288;55.922;37.720;2022-08-01T04:17:55;15.20;;;3.08;;
66468;SDS011;53288;55.922;37.720;2022-08-01T04:20:21;15.00;;;2.72;;
66468;SDS011;53288;55.922;37.720;2022-08-01T04:22:47;11.20;;;2.42;;
66468;SDS011;53288;55.922;37.720;2022-08-01T04:25:34;14.23;;;2.75;;
66468;SDS011;53288;55.922;37.720;2022-08-01T04:28:00;13.90;;;2.10;;
66468;SDS011;53288;55.922;37.720;2022-08-01T04:30:30;22.75;;;2.63;;
66468;SDS011;53288;55.922;37.720;2022-08-01T04:32:57;9.05;;;1.88;;
66468;SDS011;53288;55.922;37.720;2022-08-01T04:35:24;14.05;;;2.63;;
66468;SDS011;53288;55.922;37.720;2022-08-01T04:37:52;16.25;;;1.98;;
66468;SDS011;53288;55.922;37.720;2022-08-01T04:40:19;12.43;;;1.83;;
66468;SDS011;53288;55.922;37.720;2022-08-01T04:42:49;16.42;;;2.17;;
66468;SDS011;53288;55.922;37.720;2022-08-01T04:45:16;5.97;;;2.05;;
66468;SDS011;53288;55.922;37.720;2022-08-01T04:47:42;5.22;;;1.95;;
66468;SDS011;53288;55.922;37.720;2022-08-01T04:50:09;15.35;;;2.85;;
66468;SDS011;53288;55.922;37.720;2022-08-01T04:52:35;26.00;;;2.00;;
66468;SDS011;53288;55.922;37.720;2022-08-01T04:55:03;17.67;;;1.80;;
66468;SDS011;53288;55.922;37.720;2022-08-01T04:57:29;12.98;;;1.77;;
66468;SDS011;53288;55.922;37.720;2022-08-01T04:59:56;12.23;;;2.08;;
66468;SDS011;53288;55.922;37.720;2022-08-01T05:02:24;13.00;;;2.72;;
66468;SDS011;53288;55.922;37.720;2022-08-01T05:04:53;27.83;;;2.80;;
66468;SDS011;53288;55.922;37.720;2022-08-01T05:07:20;14.65;;;2.35;;
66468;SDS011;53288;55.922;37.720;2022-08-01T05:09:46;10.50;;;2.85;;
66468;SDS011;53288;55.922;37.720;2022-08-01T05:12:12;25.60;;;3.30;;
66468;SDS011;53288;55.922;37.720;2022-08-01T05:14:38;15.93;;;2.50;;
66468;SDS011;53288;55.922;37.720;2022-08-01T05:17:06;28.45;;;3.08;;
66468;SDS011;53288;55.922;37.720;2022-08-01T05:19:33;12.00;;;2.85;;
66468;SDS011;53288;55.922;37.720;2022-08-01T05:21:59;14.98;;;2.50;;
66468;SDS011;53288;55.922;37.720;2022-08-01T05:24:33;28.23;;;3.00;;
66468;SDS011;53288;55.922;37.720;2022-08-01T05:27:00;10.45;;;2.90;;
66468;SDS011;53288;55.922;37.720;2022-08-01T05:29:26;10.70;;;3.30;;
66468;SDS011;53288;55.922;37.720;2022-08-01T05:31:53;8.15;;;3.42;;
66468;SDS011;53288;55.922;37.720;2022-08-01T05:34:19;7.28;;;3.42;;
66468;SDS011;53288;55.922;37.720;2022-08-01T05:36:45;10.35;;;3.63;;
66468;SDS011;53288;55.922;37.720;2022-08-01T05:39:11;18.42;;;2.95;;
66468;SDS011;53288;55.922;37.720;2022-08-01T05:41:38;12.98;;;2.92;;
66468;SDS011;53288;55.922;37.720;2022-08-01T05:44:04;9.55;;;3.85;;
66468;SDS011;53288;55.922;37.720;2022-08-01T05:46:30;10.10;;;3.40;;
66468;SDS011;53288;55.922;37.720;2022-08-01T05:48:57;7.78;;;3.08;;
66468;SDS011;53288;55.922;37.720;2022-08-01T05:51:24;12.82;;;3.88;;
66468;SDS011;53288;55.922;37.720;2022-08-01T05:53:50;8.70;;;3.42;;
66468;SDS011;53288;55.922;37.720;2022-08-01T05:56:16;5.25;;;2.70;;
66468;SDS011;53288;55.922;37.720;2022-08-01T05:58:43;14.65;;;3.03;;
66468;SDS011;53288;55.922;37.720;2022-08-01T06:01:09;4.15;;;3.50;;
66468;SDS011;53288;55.922;37.720;2022-08-01T06:03:36;26.05;;;3.97;;
66468;SDS011;53288;55.922;37.720;2022-08-01T06:06:02;3.20;;;2.90;;
66468;SDS011;53288;55.922;37.720;2022-08-01T06:08:28;6.03;;;3.65;;
66468;SDS011;53288;55.922;37.720;2022-08-01T06:10:54;5.88;;;3.35;;
66468;SDS011;53288;55.922;37.720;2022-08-01T06:13:20;9.32;;;3.22;;
66468;SDS011;53288;55.922;37.720;2022-08-01T06:15:46;10.30;;;3.08;;
66468;SDS011;53288;55.922;37.720;2022-08-01T06:18:12;10.63;;;2.45;;
66468;SDS011;53288;55.922;37.720;2022-08-01T06:20:38;5.28;;;2.05;;
66468;SDS011;53288;55.922;37.720;2022-08-01T06:23:04;8.38;;;2.13;;
66468;SDS011;53288;55.922;37.720;2022-08-01T06:25:30;7.78;;;2.78;;
66468;SDS011;53288;55.922;37.720;2022-08-01T06:27:56;6.00;;;1.90;;
66468;SDS011;53288;55.922;37.720;2022-08-01T06:30:22;18.58;;;2.38;;
66468;SDS011;53288;55.922;37.720;2022-08-01T06:32:48;10.93;;;1.92;;
66468;SDS011;53288;55.922;37.720;2022-08-01T06:35:14;7.43;;;1.40;;
66468;SDS011;53288;55.922;37.720;2022-08-01T06:37:41;4.85;;;1.45;;
66468;SDS011;53288;55.922;37.720;2022-08-01T06:40:08;2.80;;;1.70;;
66468;SDS011;53288;55.922;37.720;2022-08-01T06:42:35;8.50;;;1.63;;
66468;SDS011;53288;55.922;37.720;2022-08-01T06:45:02;12.50;;;1.60;;
66468;SDS011;53288;55.922;37.720;2022-08-01T06:47:29;6.70;;;1.50;;
66468;SDS011;53288;55.922;37.720;2022-08-01T06:49:55;5.15;;;1.17;;
66468;SDS011;53288;55.922;37.720;2022-08-01T06:52:21;19.42;;;1.70;;
66468;SDS011;53288;55.922;37.720;2022-08-01T06:54:46;3.83;;;1.13;;
66468;SDS011;53288;55.922;37.720;2022-08-01T06:57:12;6.45;;;1.08;;
66468;SDS011;53288;55.922;37.720;2022-08-01T06:59:38;2.03;;;0.90;;
66468;SDS011;53288;55.922;37.720;2022-08-01T07:02:04;6.80;;;1.10;;
66468;SDS011;53288;55.922;37.720;2022-08-01T07:04:30;15.00;;;1.00;;
66468;SDS011;53288;55.922;37.720;2022-08-01T07:06:57;8.30;;;1.10;;
66468;SDS011;53288;55.922;37.720;2022-08-01T07:09:23;7.05;;;1.30;;
66468;SDS011;53288;55.922;37.720;2022-08-01T07:11:49;5.68;;;1.00;;
66468;SDS011;53288;55.922;37.720;2022-08-01T07:14:18;21.00;;;1.40;;
66468;SDS011;53288;55.922;37.720;2022-08-01T07:16:44;13.70;;;1.20;;
66468;SDS011;53288;55.922;37.720;2022-08-01T07:19:10;7.80;;;1.20;;
66468;SDS011;53288;55.922;37.720;2022-08-01T07:21:36;3.58;;;1.35;;
66468;SDS011;53288;55.922;37.720;2022-08-01T07:24:04;2.53;;;1.25;;
66468;SDS011;53288;55.922;37.720;2022-08-01T07:26:30;2.80;;;1.00;;
66468;SDS011;53288;55.922;37.720;2022-08-01T07:28:56;3.75;;;1.30;;
66468;SDS011;53288;55.922;37.720;2022-08-01T07:31:22;6.80;;;1.80;;
66468;SDS011;53288;55.922;37.720;2022-08-01T07:33:48;8.80;;;1.30;;
66468;SDS011;53288;55.922;37.720;2022-08-01T07:36:18;9.52;;;1.30;;
66468;SDS011;53288;55.922;37.720;2022-08-01T07:38:44;2.50;;;1.23;;
66468;SDS011;53288;55.922;37.720;2022-08-01T07:41:11;14.45;;;1.30;;
66468;SDS011;53288;55.922;37.720;2022-08-01T07:43:37;9.30;;;1.30;;
66468;SDS011;53288;55.922;37.720;2022-08-01T07:46:03;8.25;;;1.35;;
66468;SDS011;53288;55.922;37.720;2022-08-01T07:48:29;20.92;;;1.55;;
66468;SDS011;53288;55.922;37.720;2022-08-01T07:50:55;14.45;;;1.20;;
66468;SDS011;53288;55.922;37.720;2022-08-01T07:53:22;10.05;;;1.52;;
66468;SDS011;53288;55.922;37.720;2022-08-01T07:55:48;4.85;;;1.00;;
66468;SDS011;53288;55.922;37.720;2022-08-01T07:58:14;8.25;;;1.25;;
66468;SDS011;53288;55.922;37.720;2022-08-01T08:00:41;6.38;;;1.02;;
66468;SDS011;53288;55.922;37.720;2022-08-01T08:03:06;10.85;;;1.33;;
66468;SDS011;53288;55.922;37.720;2022-08-01T08:05:32;4.57;;;1.13;;
66468;SDS011;53288;55.922;37.720;2022-08-01T08:08:02;10.90;;;1.10;;
66468;SDS011;53288;55.922;37.720;2022-08-01T08:10:31;6.57;;;1.40;;
66468;SDS011;53288;55.922;37.720;2022-08-01T08:12:57;11.15;;;1.90;;
66468;SDS011;53288;55.922;37.720;2022-08-01T08:15:23;4.50;;;1.10;;
66468;SDS011;53288;55.922;37.720;2022-08-01T08:17:50;12.38;;;1.85;;
66468;SDS011;53288;55.922;37.720;2022-08-01T08:20:17;4.40;;;1.10;;
66468;SDS011;53288;55.922;37.720;2022-08-01T08:22:43;7.40;;;1.15;;
66468;SDS011;53288;55.922;37.720;2022-08-01T08:25:09;10.70;;;1.35;;
66468;SDS011;53288;55.922;37.720;2022-08-01T08:27:36;5.80;;;1.20;;
66468;SDS011;53288;55.922;37.720;2022-08-01T08:30:02;1.63;;;0.90;;
66468;SDS011;53288;55.922;37.720;2022-08-01T08:32:32;9.25;;;1.40;;
66468;SDS011;53288;55.922;37.720;2022-08-01T08:34:59;3.90;;;1.27;;
66468;SDS011;53288;55.922;37.720;2022-08-01T08:37:25;7.93;;;1.25;;
66468;SDS011;53288;55.922;37.720;2022-08-01T08:39:51;2.30;;;1.30;;
66468;SDS011;53288;55.922;37.720;2022-08-01T08:42:17;3.95;;;1.15;;
66468;SDS011;53288;55.922;37.720;2022-08-01T08:44:43;7.18;;;1.42;;
66468;SDS011;53288;55.922;37.720;2022-08-01T08:47:11;9.95;;;1.20;;
66468;SDS011;53288;55.922;37.720;2022-08-01T08:49:38;21.08;;;1.70;;
66468;SDS011;53288;55.922;37.720;2022-08-01T08:52:04;15.30;;;1.60;;
66468;SDS011;53288;55.922;37.720;2022-08-01T08:54:30;7.57;;;1.30;;
66468;SDS011;53288;55.922;37.720;2022-08-01T08:56:58;12.43;;;1.67;;
66468;SDS011;53288;55.922;37.720;2022-08-01T08:59:25;13.82;;;1.60;;
66468;SDS011;53288;55.922;37.720;2022-08-01T09:01:51;4.35;;;1.65;;
66468;SDS011;53288;55.922;37.720;2022-08-01T09:04:17;24.60;;;1.83;;
66468;SDS011;53288;55.922;37.720;2022-08-01T09:06:43;5.30;;;1.30;;
66468;SDS011;53288;55.922;37.720;2022-08-01T09:09:09;15.73;;;1.70;;
66468;SDS011;53288;55.922;37.720;2022-08-01T09:11:36;46.03;;;7.28;;
66468;SDS011;53288;55.922;37.720;2022-08-01T09:16:31;11.57;;;1.30;;
66468;SDS011;53288;55.922;37.720;2022-08-01T09:19:07;4.53;;;1.33;;
66468;SDS011;53288;55.922;37.720;2022-08-01T09:22:02;19.15;;;4.70;;
66468;SDS011;53288;55.922;37.720;2022-08-01T09:24:29;11.55;;;1.40;;
66468;SDS011;53288;55.922;37.720;2022-08-01T09:26:56;24.35;;;2.03;;
66468;SDS011;53288;55.922;37.720;2022-08-01T09:29:24;25.73;;;1.80;;
66468;SDS011;53288;55.922;37.720;2022-08-01T09:31:51;7.35;;;1.40;;
66468;SDS011;53288;55.922;37.720;2022-08-01T09:34:24;10.48;;;1.80;;
66468;SDS011;53288;55.922;37.720;2022-08-01T09:36:52;7.53;;;1.77;;
66468;SDS011;53288;55.922;37.720;2022-08-01T09:39:22;5.28;;;1.80;;
66468;SDS011;53288;55.922;37.720;2022-08-01T09:41:48;9.38;;;1.90;;
66468;SDS011;53288;55.922;37.720;2022-08-01T09:44:15;7.03;;;1.40;;
66468;SDS011;53288;55.922;37.720;2022-08-01T09:46:50;5.78;;;1.50;;
66468;SDS011;53288;55.922;37.720;2022-08-01T09:49:32;13.68;;;1.90;;
66468;SDS011;53288;55.922;37.720;2022-08-01T09:52:16;26.08;;;1.70;;
66468;SDS011;53288;55.922;37.720;2022-08-01T09:54:44;8.32;;;1.73;;
66468;SDS011;53288;55.922;37.720;2022-08-01T09:57:20;11.15;;;1.60;;
66468;SDS011;53288;55.922;37.720;2022-08-01T09:59:47;25.30;;;2.50;;
66468;SDS011;53288;55.922;37.720;2022-08-01T10:05:05;6.90;;;1.73;;
66468;SDS011;53288;55.922;37.720;2022-08-01T10:07:32;11.57;;;1.88;;
66468;SDS011;53288;55.922;37.720;2022-08-01T10:10:19;13.55;;;1.80;;
66468;SDS011;53288;55.922;37.720;2022-08-01T10:12:44;10.55;;;1.70;;
66468;SDS011;53288;55.922;37.720;2022-08-01T10:15:10;10.50;;;1.73;;
66468;SDS011;53288;55.922;37.720;2022-08-01T10:17:37;9.88;;;2.22;;
66468;SDS011;53288;55.922;37.720;2022-08-01T10:20:05;11.38;;;1.55;;
66468;SDS011;53288;55.922;37.720;2022-08-01T10:22:31;13.77;;;1.67;;
66468;SDS011;53288;55.922;37.720;2022-08-01T10:24:59;6.88;;;1.60;;
66468;SDS011;53288;55.922;37.720;2022-08-01T10:27:29;6.10;;;1.48;;
66468;SDS011;53288;55.922;37.720;2022-08-01T10:29:56;5.28;;;1.50;;
66468;SDS011;53288;55.922;37.720;2022-08-01T10:32:31;2.42;;;1.40;;
66468;SDS011;53288;55.922;37.720;2022-08-01T10:34:58;8.25;;;1.38;;
66468;SDS011;53288;55.922;37.720;2022-08-01T10:37:24;4.05;;;1.50;;
66468;SDS011;53288;55.922;37.720;2022-08-01T10:39:51;4.45;;;1.60;;
66468;SDS011;53288;55.922;37.720;2022-08-01T10:42:17;2.92;;;1.33;;
66468;SDS011;53288;55.922;37.720;2022-08-01T10:44:44;8.23;;;1.63;;
66468;SDS011;53288;55.922;37.720;2022-08-01T10:47:13;5.53;;;1.50;;
66468;SDS011;53288;55.922;37.720;2022-08-01T10:49:45;1.65;;;1.40;;
66468;SDS011;53288;55.922;37.720;2022-08-01T10:52:14;10.93;;;1.75;;
66468;SDS011;53288;55.922;37.720;2022-08-01T10:54:41;12.50;;;1.58;;
66468;SDS011;53288;55.922;37.720;2022-08-01T10:57:07;3.17;;;1.77;;
66468;SDS011;53288;55.922;37.720;2022-08-01T10:59:32;4.55;;;1.40;;
66468;SDS011;53288;55.922;37.720;2022-08-01T11:02:05;7.38;;;1.83;;
66468;SDS011;53288;55.922;37.720;2022-08-01T11:07:17;4.22;;;1.40;;
66468;SDS011;53288;55.922;37.720;2022-08-01T11:09:46;16.98;;;1.73;;
66468;SDS011;53288;55.922;37.720;2022-08-01T11:12:16;3.03;;;1.42;;
66468;SDS011;53288;55.922;37.720;2022-08-01T11:17:41;11.17;;;1.60;;
66468;SDS011;53288;55.922;37.720;2022-08-01T11:20:17;11.65;;;1.85;;
66468;SDS011;53288;55.922;37.720;2022-08-01T11:30:44;6.20;;;1.17;;
66468;SDS011;53288;55.922;37.720;2022-08-01T11:33:15;9.40;;;1.43;;
66468;SDS011;53288;55.922;37.720;2022-08-01T11:38:48;9.77;;;1.80;;
66468;SDS011;53288;55.922;37.720;2022-08-01T11:41:21;7.85;;;1.60;;
66468;SDS011;53288;55.922;37.720;2022-08-01T11:44:00;10.80;;;1.52;;
66468;SDS011;53288;55.922;37.720;2022-08-01T11:46:54;1.73;;;1.42;;
66468;SDS011;53288;55.922;37.720;2022-08-01T11:52:04;7.15;;;1.42;;
66468;SDS011;53288;55.922;37.720;2022-08-01T11:54:34;7.22;;;1.70;;
66468;SDS011;53288;55.922;37.720;2022-08-01T11:57:03;10.90;;;1.58;;
66468;SDS011;53288;55.922;37.720;2022-08-01T12:00:16;10.33;;;1.40;;
66468;SDS011;53288;55.922;37.720;2022-08-01T12:02:27;10.68;;;1.60;;
66468;SDS011;53288;55.922;37.720;2022-08-01T12:07:29;2.42;;;1.40;;
66468;SDS011;53288;55.922;37.720;2022-08-01T12:12:30;4.45;;;1.38;;
66468;SDS011;53288;55.922;37.720;2022-08-01T12:14:58;7.30;;;1.40;;
66468;SDS011;53288;55.922;37.720;2022-08-01T12:17:29;9.32;;;1.50;;
66468;SDS011;53288;55.922;37.720;2022-08-01T12:19:58;8.13;;;1.33;;
66468;SDS011;53288;55.922;37.720;2022-08-01T12:22:24;12.77;;;1.50;;
66468;SDS011;53288;55.922;37.720;2022-08-01T12:24:51;6.40;;;1.30;;
66468;SDS011;53288;55.922;37.720;2022-08-01T12:27:27;7.50;;;1.38;;
66468;SDS011;53288;55.922;37.720;2022-08-01T12:29:55;6.35;;;1.10;;
66468;SDS011;53288;55.922;37.720;2022-08-01T12:32:28;15.73;;;1.38;;
66468;SDS011;53288;55.922;37.720;2022-08-01T12:34:57;8.88;;;1.00;;
66468;SDS011;53288;55.922;37.720;2022-08-01T12:37:28;4.93;;;1.02;;
66468;SDS011;53288;55.922;37.720;2022-08-01T12:39:55;3.42;;;1.33;;
66468;SDS011;53288;55.922;37.720;2022-08-01T12:42:21;3.10;;;1.40;;
66468;SDS011;53288;55.922;37.720;2022-08-01T12:44:48;9.63;;;1.50;;
66468;SDS011;53288;55.922;37.720;2022-08-01T12:47:16;8.13;;;1.13;;
66468;SDS011;53288;55.922;37.720;2022-08-01T12:49:43;8.13;;;1.52;;
66468;SDS011;53288;55.922;37.720;2022-08-01T12:52:11;6.65;;;1.42;;
66468;SDS011;53288;55.922;37.720;2022-08-01T12:57:48;19.80;;;1.95;;
66468;SDS011;53288;55.922;37.720;2022-08-01T13:00:20;6.63;;;1.35;;
66468;SDS011;53288;55.922;37.720;2022-08-01T13:03:12;5.13;;;1.45;;
66468;SDS011;53288;55.922;37.720;2022-08-01T13:05:41;3.50;;;1.40;;
66468;SDS011;53288;55.922;37.720;2022-08-01T13:08:13;11.85;;;1.65;;
66468;SDS011;53288;55.922;37.720;2022-08-01T13:10:43;6.30;;;1.67;;
66468;SDS011;53288;55.922;37.720;2022-08-01T13:13:10;17.67;;;1.65;;
66468;SDS011;53288;55.922;37.720;2022-08-01T13:15:37;7.60;;;1.40;;
66468;SDS011;53288;55.922;37.720;2022-08-01T13:18:24;6.70;;;1.60;;
66468;SDS011;53288;55.922;37.720;2022-08-01T13:21:08;151.00;;;5.47;;
66468;SDS011;53288;55.922;37.720;2022-08-01T13:23:34;11.55;;;1.75;;
66468;SDS011;53288;55.922;37.720;2022-08-01T13:26:00;9.10;;;1.83;;
66468;SDS011;53288;55.922;37.720;2022-08-01T13:28:26;4.20;;;1.35;;
66468;SDS011;53288;55.922;37.720;2022-08-01T13:30:55;6.93;;;1.60;;
66468;SDS011;53288;55.922;37.720;2022-08-01T13:33:22;10.85;;;1.67;;
66468;SDS011;53288;55.922;37.720;2022-08-01T13:35:53;2.78;;;1.30;;
66468;SDS011;53288;55.922;37.720;2022-08-01T13:38:20;1.35;;;0.95;;
66468;SDS011;53288;55.922;37.720;2022-08-01T13:41:06;15.07;;;1.30;;
66468;SDS011;53288;55.922;37.720;2022-08-01T13:43:33;3.40;;;1.20;;
66468;SDS011;53288;55.922;37.720;2022-08-01T13:46:00;7.30;;;1.20;;
66468;SDS011;53288;55.922;37.720;2022-08-01T13:48:30;7.43;;;1.27;;
66468;SDS011;53288;55.922;37.720;2022-08-01T13:50:57;5.78;;;1.30;;
66468;SDS011;53288;55.922;37.720;2022-08-01T13:53:23;18.30;;;1.30;;
66468;SDS011;53288;55.922;37.720;2022-08-01T13:55:48;9.50;;;1.30;;
66468;SDS011;53288;55.922;37.720;2022-08-01T13:58:14;10.60;;;1.52;;
66468;SDS011;53288;55.922;37.720;2022-08-01T14:00:40;10.95;;;1.30;;
66468;SDS011;53288;55.922;37.720;2022-08-01T14:03:06;19.42;;;1.73;;
66468;SDS011;53288;55.922;37.720;2022-08-01T14:05:34;11.50;;;1.70;;
66468;SDS011;53288;55.922;37.720;2022-08-01T14:08:01;4.70;;;1.30;;
66468;SDS011;53288;55.922;37.720;2022-08-01T14:10:27;5.95;;;1.38;;
66468;SDS011;53288;55.922;37.720;2022-08-01T14:12:54;14.15;;;1.60;;
66468;SDS011;53288;55.922;37.720;2022-08-01T14:15:21;9.95;;;2.40;;
66468;SDS011;53288;55.922;37.720;2022-08-01T14:17:46;9.77;;;3.88;;
66468;SDS011;53288;55.922;37.720;2022-08-01T14:20:12;5.05;;;1.27;;
66468;SDS011;53288;55.922;37.720;2022-08-01T14:22:39;11.52;;;1.27;;
66468;SDS011;53288;55.922;37.720;2022-08-01T14:25:06;4.65;;;1.40;;
66468;SDS011;53288;55.922;37.720;2022-08-01T14:27:33;13.55;;;1.70;;
66468;SDS011;53288;55.922;37.720;2022-08-01T14:30:02;6.82;;;1.50;;
66468;SDS011;53288;55.922;37.720;2022-08-01T14:32:29;12.63;;;1.60;;
66468;SDS011;53288;55.922;37.720;2022-08-01T14:34:55;8.80;;;1.52;;
66468;SDS011;53288;55.922;37.720;2022-08-01T14:37:22;12.43;;;1.75;;
66468;SDS011;53288;55.922;37.720;2022-08-01T14:39:49;10.85;;;1.48;;
66468;SDS011;53288;55.922;37.720;2022-08-01T14:42:15;11.45;;;1.73;;
66468;SDS011;53288;55.922;37.720;2022-08-01T14:44:42;14.82;;;1.98;;
66468;SDS011;53288;55.922;37.720;2022-08-01T14:47:07;8.85;;;1.92;;
66468;SDS011;53288;55.922;37.720;2022-08-01T14:49:33;7.35;;;1.70;;
66468;SDS011;53288;55.922;37.720;2022-08-01T14:51:59;2.60;;;1.67;;
66468;SDS011;53288;55.922;37.720;2022-08-01T14:54:25;7.18;;;1.85;;
66468;SDS011;53288;55.922;37.720;2022-08-01T14:56:51;9.77;;;1.50;;
66468;SDS011;53288;55.922;37.720;2022-08-01T14:59:18;5.45;;;1.55;;
66468;SDS011;53288;55.922;37.720;2022-08-01T15:01:45;14.38;;;1.60;;
66468;SDS011;53288;55.922;37.720;2022-08-01T15:04:11;6.95;;;1.42;;
66468;SDS011;53288;55.922;37.720;2022-08-01T15:06:38;8.95;;;1.77;;
66468;SDS011;53288;55.922;37.720;2022-08-01T15:09:04;13.07;;;1.60;;
66468;SDS011;53288;55.922;37.720;2022-08-01T15:11:30;17.70;;;1.60;;